Time;durP1;ratioP1;P1;durP2;ratioP2;P2;SDS_P1;SDS_P2;PMS_P1;PMS_P2;Temp;Humidity;BMP_temperature;BMP_pressure;BME280_temperature;BME280_humidity;BME280_pressure;Samples;Min_cycle;Max_cycle;Signal;HPM_P1;HPM_P2
2022/11/22 00:01:05;;;;;;;6.30;3.17;;;6.70;99.90;;;;;;4949442;29;20038;-75
2022/11/22 00:03:31;;;;;;;5.40;4.32;;;6.60;99.90;;;;;;4949574;29;20095;-75
2022/11/22 00:05:56;;;;;;;8.63;6.88;;;6.60;99.90;;;;;;4949472;29;20086;-75
2022/11/22 00:08:22;;;;;;;7.78;6.65;;;6.60;99.90;;;;;;4949326;29;20084;-75
2022/11/22 00:10:49;;;;;;;17.20;6.95;;;6.60;99.90;;;;;;4932143;29;20044;-75
2022/11/22 00:13:20;;;;;;;7.07;4.53;;;6.50;99.90;;;;;;4932173;29;20032;-75
2022/11/22 00:15:57;;;;;;;8.20;6.40;;;6.50;99.90;;;;;;4949239;29;20036;-75
2022/11/22 00:18:22;;;;;;;10.10;4.93;;;6.50;99.90;;;;;;4949169;29;20457;-75
2022/11/22 00:20:49;;;;;;;11.88;4.75;;;6.40;99.90;;;;;;4949336;29;20059;-75
2022/11/22 00:23:15;;;;;;;4.05;3.35;;;6.40;99.90;;;;;;4949023;29;20059;-75
2022/11/22 00:25:41;;;;;;;3.17;2.88;;;6.40;99.90;;;;;;4949021;29;20078;-75
2022/11/22 00:28:07;;;;;;;5.10;3.20;;;6.30;99.90;;;;;;4949170;29;20050;-75
2022/11/22 00:30:33;;;;;;;5.03;2.35;;;6.30;99.90;;;;;;4948890;29;20048;-75
2022/11/22 00:32:58;;;;;;;3.88;3.58;;;6.40;99.90;;;;;;4949110;29;20059;-75
2022/11/22 00:35:24;;;;;;;5.82;3.10;;;6.40;99.90;;;;;;4931309;29;20038;-75
2022/11/22 00:37:50;;;;;;;13.70;4.57;;;6.40;99.90;;;;;;4948903;29;20043;-75
2022/11/22 00:40:16;;;;;;;5.68;3.53;;;6.40;99.90;;;;;;4948202;29;20056;-75
2022/11/22 00:42:44;;;;;;;7.82;4.97;;;6.40;99.90;;;;;;4948766;29;20044;-75
2022/11/22 00:45:10;;;;;;;3.67;3.28;;;6.40;99.90;;;;;;4931676;29;20086;-75
2022/11/22 00:47:35;;;;;;;3.78;3.30;;;6.30;99.90;;;;;;4931760;29;20032;-75
2022/11/22 00:50:01;;;;;;;13.02;3.30;;;6.30;99.90;;;;;;4948739;29;20490;-75
2022/11/22 00:52:27;;;;;;;7.45;2.70;;;6.30;99.90;;;;;;4948470;29;20040;-75
2022/11/22 00:54:53;;;;;;;3.13;2.88;;;6.30;99.90;;;;;;4948497;29;20055;-75
2022/11/22 00:57:18;;;;;;;6.63;3.10;;;6.20;99.90;;;;;;4929653;29;20064;-75
2022/11/22 00:59:45;;;;;;;5.50;3.65;;;6.20;99.90;;;;;;4928258;29;20047;-75
2022/11/22 01:02:10;;;;;;;4.53;3.80;;;6.20;99.90;;;;;;4929460;29;20040;-75
2022/11/22 01:04:36;;;;;;;10.30;3.88;;;6.20;99.90;;;;;;4929406;29;20036;-75
2022/11/22 01:07:02;;;;;;;10.75;3.03;;;6.20;99.90;;;;;;4929481;29;20036;-75
2022/11/22 01:09:28;;;;;;;5.63;3.63;;;6.20;99.90;;;;;;4929631;29;20036;-76
2022/11/22 01:11:54;;;;;;;5.10;2.45;;;6.20;99.90;;;;;;4947447;29;20061;-75
2022/11/22 01:14:20;;;;;;;12.13;3.53;;;6.20;99.90;;;;;;4948380;29;20028;-75
2022/11/22 01:16:47;;;;;;;16.95;5.80;;;6.20;99.90;;;;;;4948377;29;20485;-76
2022/11/22 01:19:12;;;;;;;7.53;4.13;;;6.10;99.90;;;;;;4948362;29;20038;-76
2022/11/22 01:21:39;;;;;;;11.98;4.60;;;6.10;99.90;;;;;;4948072;29;20064;-75
2022/11/22 01:24:05;;;;;;;11.55;4.45;;;6.10;99.90;;;;;;4931465;29;20481;-75
2022/11/22 01:26:32;;;;;;;5.97;4.60;;;6.10;99.90;;;;;;4930887;29;20079;-75
2022/11/22 01:28:58;;;;;;;9.45;3.78;;;6.10;99.90;;;;;;4931095;29;20035;-75
2022/11/22 01:31:23;;;;;;;15.30;5.05;;;6.10;99.90;;;;;;4948526;29;20036;-75
2022/11/22 01:33:49;;;;;;;8.82;3.90;;;6.10;99.90;;;;;;4931174;29;20031;-76
2022/11/22 01:36:15;;;;;;;13.00;4.20;;;6.00;99.90;;;;;;4948279;29;20046;-75
2022/11/22 01:38:41;;;;;;;4.60;3.28;;;6.10;99.90;;;;;;4930761;29;20047;-75
2022/11/22 01:41:07;;;;;;;10.80;4.53;;;6.10;99.90;;;;;;4947661;29;20036;-75
2022/11/22 01:43:33;;;;;;;13.60;3.70;;;6.00;99.90;;;;;;4948229;29;20040;-75
2022/11/22 01:46:26;;;;;;;16.25;2.88;;;6.00;99.90;;;;;;4949755;29;20028;-75
2022/11/22 01:49:13;;;;;;;6.40;4.20;;;6.10;99.90;;;;;;4934758;29;20163;-75
2022/11/22 01:51:48;;;;;;;16.17;4.55;;;6.00;99.90;;;;;;4934784;29;20485;-77
2022/11/22 01:54:21;;;;;;;8.43;4.72;;;6.00;99.90;;;;;;4951704;29;20042;-76
2022/11/22 01:56:55;;;;;;;14.73;4.70;;;5.90;99.90;;;;;;4951691;29;20059;-75
2022/11/22 01:59:25;;;;;;;6.45;3.00;;;5.90;99.90;;;;;;4951363;29;20039;-76
2022/11/22 02:01:52;;;;;;;20.75;5.22;;;6.00;99.90;;;;;;4951740;29;20055;-75
2022/11/22 02:04:19;;;;;;;9.07;3.92;;;5.90;99.90;;;;;;4951416;29;20036;-75
2022/11/22 02:06:51;;;;;;;10.75;3.45;;;6.00;99.90;;;;;;4951601;29;20047;-76
2022/11/22 02:09:17;;;;;;;18.88;6.50;;;6.00;99.90;;;;;;4951515;29;20040;-75
2022/11/22 02:11:50;;;;;;;5.30;4.43;;;6.00;99.90;;;;;;4951506;29;20050;-76
2022/11/22 02:14:22;;;;;;;16.83;5.28;;;6.00;99.90;;;;;;4951164;29;20032;-76
2022/11/22 02:16:48;;;;;;;11.60;5.53;;;6.00;99.90;;;;;;4951362;29;20035;-76
2022/11/22 02:19:37;;;;;;;8.32;4.70;;;5.90;99.90;;;;;;4951353;29;20034;-75
2022/11/22 02:22:23;;;;;;;4.43;2.92;;;5.90;99.90;;;;;;4950682;29;20042;-75
2022/11/22 02:24:55;;;;;;;12.02;4.65;;;5.90;99.90;;;;;;4951479;29;20107;-75
2022/11/22 02:27:22;;;;;;;14.88;4.93;;;5.90;99.90;;;;;;4950883;29;20036;-75
2022/11/22 02:29:48;;;;;;;15.93;4.30;;;5.90;99.90;;;;;;4951041;29;20028;-76
2022/11/22 02:32:14;;;;;;;13.07;4.43;;;5.90;99.90;;;;;;4933792;29;20102;-76
2022/11/22 02:34:48;;;;;;;14.63;3.97;;;5.90;99.90;;;;;;4951159;29;20031;-76
2022/11/22 02:37:19;;;;;;;13.98;5.47;;;5.90;99.90;;;;;;4950816;29;20056;-76
2022/11/22 02:39:47;;;;;;;14.27;4.13;;;5.80;99.90;;;;;;4950515;29;20047;-76
2022/11/22 02:42:13;;;;;;;10.65;4.85;;;5.80;99.90;;;;;;4950391;29;20042;-75
2022/11/22 02:44:40;;;;;;;7.80;4.20;;;5.90;99.90;;;;;;4933579;29;20043;-76
2022/11/22 02:47:06;;;;;;;7.30;3.42;;;5.80;99.90;;;;;;4950776;29;20051;-75
2022/11/22 02:49:32;;;;;;;11.45;4.85;;;5.80;99.90;;;;;;4950813;29;20556;-76
2022/11/22 02:51:58;;;;;;;6.95;4.90;;;5.80;99.90;;;;;;4950117;29;20027;-76
2022/11/22 02:54:23;;;;;;;12.50;4.60;;;5.70;99.90;;;;;;4950511;29;20040;-75
2022/11/22 02:56:49;;;;;;;13.25;4.32;;;5.70;99.90;;;;;;4950153;29;20044;-75
2022/11/22 02:59:16;;;;;;;12.40;4.72;;;5.70;99.90;;;;;;4950578;29;20043;-75
2022/11/22 03:01:43;;;;;;;10.50;3.58;;;5.70;99.90;;;;;;4950093;29;20040;-76
2022/11/22 03:04:23;;;;;;;4.68;2.92;;;5.70;99.90;;;;;;4950655;29;20042;-76
2022/11/22 03:06:50;;;;;;;7.40;3.90;;;5.70;99.90;;;;;;4950588;29;20108;-76
2022/11/22 03:09:16;;;;;;;7.43;3.67;;;5.60;99.90;;;;;;4950444;29;20100;-76
2022/11/22 03:11:42;;;;;;;8.50;3.67;;;5.60;99.90;;;;;;4950286;29;20067;-76
2022/11/22 03:14:08;;;;;;;8.55;3.38;;;5.50;99.90;;;;;;4933359;29;20043;-76
2022/11/22 03:16:34;;;;;;;9.68;3.75;;;5.50;99.90;;;;;;4932710;29;20137;-76
2022/11/22 03:19:00;;;;;;;3.78;2.65;;;5.60;99.90;;;;;;4950257;29;20039;-75
2022/11/22 03:21:26;;;;;;;9.68;3.63;;;5.50;99.90;;;;;;4949996;29;20036;-75
2022/11/22 03:23:51;;;;;;;7.28;3.20;;;5.50;99.90;;;;;;4950220;29;20031;-75
2022/11/22 03:26:17;;;;;;;10.90;3.22;;;5.40;99.90;;;;;;4932858;29;20036;-75
2022/11/22 03:28:43;;;;;;;4.72;2.33;;;5.50;99.90;;;;;;4950033;29;20036;-76
2022/11/22 03:31:08;;;;;;;10.45;4.00;;;5.50;99.90;;;;;;4950015;29;20040;-75
2022/11/22 03:33:35;;;;;;;8.05;3.35;;;5.50;99.90;;;;;;4950023;29;20063;-76
2022/11/22 03:36:01;;;;;;;12.57;4.07;;;5.50;99.90;;;;;;4949888;29;20059;-75
2022/11/22 03:38:26;;;;;;;13.45;4.13;;;5.60;99.90;;;;;;4949698;29;20393;-75
2022/11/22 03:40:53;;;;;;;8.38;3.47;;;5.50;99.90;;;;;;4949514;29;20095;-75
2022/11/22 03:43:19;;;;;;;8.52;3.97;;;5.40;99.90;;;;;;4949765;29;20036;-76
2022/11/22 03:45:45;;;;;;;13.13;3.75;;;5.40;99.90;;;;;;4949609;29;20038;-76
2022/11/22 03:48:12;;;;;;;8.50;3.42;;;5.40;99.90;;;;;;4949893;29;20058;-76
2022/11/22 03:50:38;;;;;;;14.23;3.80;;;5.40;99.90;;;;;;4932623;29;20039;-75
2022/11/22 03:53:04;;;;;;;17.45;4.07;;;5.40;99.90;;;;;;4948963;29;20413;-76
2022/11/22 03:55:30;;;;;;;6.97;3.30;;;5.30;99.90;;;;;;4949576;29;20031;-75
2022/11/22 03:57:57;;;;;;;7.85;3.08;;;5.30;99.90;;;;;;4932361;29;20398;-75
2022/11/22 04:00:22;;;;;;;9.98;3.03;;;5.20;99.90;;;;;;4949369;29;20393;-76
2022/11/22 04:02:49;;;;;;;8.98;4.32;;;5.20;99.90;;;;;;4949536;29;20035;-75
2022/11/22 04:05:15;;;;;;;12.98;6.45;;;5.10;99.90;;;;;;4949266;29;20028;-75
2022/11/22 04:07:41;;;;;;;11.60;2.97;;;5.10;99.90;;;;;;4949125;29;20027;-76
2022/11/22 04:10:07;;;;;;;18.88;4.68;;;5.00;99.90;;;;;;4948349;29;20477;-76
2022/11/22 04:12:33;;;;;;;12.02;4.82;;;5.00;99.90;;;;;;4949185;29;20070;-75
2022/11/22 04:15:05;;;;;;;11.05;2.17;;;5.00;99.90;;;;;;4949177;29;20039;-76
2022/11/22 04:17:40;;;;;;;10.05;3.85;;;4.90;99.90;;;;;;4949194;29;20027;-75
2022/11/22 04:23:07;;;;;;;11.73;4.00;;;5.00;99.90;;;;;;4948558;29;20041;-75
2022/11/22 04:25:34;;;;;;;20.58;4.35;;;4.90;99.90;;;;;;4932100;29;20034;-76
2022/11/22 04:28:02;;;;;;;7.53;3.40;;;4.90;99.90;;;;;;4948794;29;20064;-76
2022/11/22 04:33:13;;;;;;;11.77;3.08;;;4.90;99.90;;;;;;4948848;29;20111;-75
2022/11/22 04:35:40;;;;;;;25.00;10.50;;;4.90;99.90;;;;;;4932273;29;20035;-75
2022/11/22 04:38:06;;;;;;;30.40;11.00;;;4.60;99.90;;;;;;4948575;29;20040;-75
2022/11/22 04:40:33;;;;;;;20.35;7.07;;;4.80;99.90;;;;;;4948181;29;20115;-76
2022/11/22 04:45:43;;;;;;;8.45;3.75;;;4.70;99.90;;;;;;4949087;29;20031;-76
2022/11/22 04:48:11;;;;;;;12.93;3.60;;;4.70;99.90;;;;;;4931567;29;20043;-76
2022/11/22 04:53:23;;;;;;;4.28;3.22;;;4.60;99.90;;;;;;4948331;29;20437;-75
2022/11/22 04:55:49;;;;;;;10.13;3.47;;;4.70;99.90;;;;;;4948738;29;20044;-76
2022/11/22 04:58:15;;;;;;;5.15;2.53;;;4.70;99.90;;;;;;4931548;29;20116;-75
2022/11/22 05:00:42;;;;;;;12.95;3.53;;;4.70;99.90;;;;;;4948472;29;20036;-76
2022/11/22 05:03:08;;;;;;;11.18;4.20;;;4.80;99.90;;;;;;4948499;29;20028;-75
2022/11/22 05:05:36;;;;;;;14.85;3.42;;;4.70;99.90;;;;;;4948443;29;20035;-76
2022/11/22 05:08:03;;;;;;;6.05;2.85;;;4.60;99.90;;;;;;4948130;29;20031;-75
2022/11/22 05:10:55;;;;;;;15.73;3.80;;;4.70;99.90;;;;;;4948550;29;20047;-75
2022/11/22 05:13:16;;;;;;;8.95;3.47;;;4.70;99.90;;;;;;4948449;29;20417;-76
2022/11/22 05:15:43;;;;;;;11.80;3.53;;;4.70;99.90;;;;;;4948333;29;20404;-75
2022/11/22 05:18:09;;;;;;;10.75;5.53;;;4.60;99.90;;;;;;4948231;29;20031;-75
2022/11/22 05:20:35;;;;;;;4.95;2.10;;;4.60;99.90;;;;;;4949874;29;20043;-76
2022/11/22 05:25:46;;;;;;;5.93;2.70;;;4.60;99.90;;;;;;4952222;29;20036;-75
2022/11/22 05:28:11;;;;;;;10.80;5.03;;;4.60;99.90;;;;;;4951166;29;20043;-74
2022/11/22 05:30:40;;;;;;;9.65;3.67;;;4.50;99.90;;;;;;4951827;29;20544;-74
2022/11/22 05:33:07;;;;;;;10.87;4.53;;;4.50;99.90;;;;;;4948892;29;20032;-74
2022/11/22 05:35:33;;;;;;;9.10;4.95;;;4.50;99.90;;;;;;4939515;29;20298;-73
2022/11/22 05:37:59;;;;;;;10.15;5.30;;;4.50;99.90;;;;;;4935876;29;20035;-73
2022/11/22 05:40:25;;;;;;;9.85;4.72;;;4.50;99.90;;;;;;4934110;29;20051;-73
2022/11/22 05:42:51;;;;;;;15.70;3.60;;;4.50;99.90;;;;;;4951873;29;20028;-73
2022/11/22 05:45:18;;;;;;;4.13;3.00;;;4.60;99.90;;;;;;4934185;29;20028;-73
2022/11/22 05:47:44;;;;;;;8.00;2.67;;;4.60;99.90;;;;;;4934444;29;20059;-74
2022/11/22 05:50:10;;;;;;;3.60;3.13;;;4.60;99.90;;;;;;4917286;29;20035;-73
2022/11/22 05:52:36;;;;;;;7.20;3.78;;;4.60;99.90;;;;;;4934571;29;20032;-74
2022/11/22 05:55:02;;;;;;;4.55;3.33;;;4.50;99.90;;;;;;4951437;29;20032;-74
2022/11/22 05:57:30;;;;;;;6.78;2.80;;;4.50;99.90;;;;;;4951594;29;20035;-73
2022/11/22 05:59:56;;;;;;;13.38;5.38;;;4.50;99.90;;;;;;4918594;29;20508;-74
2022/11/22 06:02:22;;;;;;;21.83;4.03;;;4.50;99.90;;;;;;4951105;29;20035;-73
2022/11/22 06:04:47;;;;;;;5.80;3.17;;;4.50;99.90;;;;;;4954892;29;20047;-73
2022/11/22 06:07:13;;;;;;;12.35;3.33;;;4.50;99.90;;;;;;4955197;29;20059;-73
2022/11/22 06:09:39;;;;;;;3.08;2.03;;;4.50;99.90;;;;;;4950630;29;20039;-73
2022/11/22 06:12:05;;;;;;;6.55;2.97;;;4.50;99.90;;;;;;4951711;29;20394;-73
2022/11/22 06:14:31;;;;;;;8.05;4.32;;;4.50;99.90;;;;;;4942232;29;20106;-73
2022/11/22 06:16:57;;;;;;;10.25;4.15;;;4.50;99.90;;;;;;4951077;29;20063;-73
2022/11/22 06:19:22;;;;;;;4.68;3.53;;;4.50;99.90;;;;;;4917934;29;20060;-73
2022/11/22 06:21:48;;;;;;;7.30;3.28;;;4.50;99.90;;;;;;4932714;29;20031;-73
2022/11/22 06:24:14;;;;;;;6.65;3.80;;;4.50;99.90;;;;;;4950771;29;20102;-73
2022/11/22 06:26:40;;;;;;;7.70;3.10;;;4.40;99.90;;;;;;4956327;29;20047;-74
2022/11/22 06:29:06;;;;;;;9.13;3.70;;;4.40;99.90;;;;;;4920125;29;20028;-73
2022/11/22 06:31:34;;;;;;;5.35;2.53;;;4.40;99.90;;;;;;4927233;29;20028;-73
2022/11/22 06:34:00;;;;;;;4.63;2.10;;;4.30;99.90;;;;;;4946412;29;20040;-73
2022/11/22 06:36:32;;;;;;;29.27;13.38;;;4.30;99.90;;;;;;4950461;29;20063;-73
2022/11/22 06:38:59;;;;;;;17.17;9.50;;;4.30;99.90;;;;;;4950423;29;20058;-73
2022/11/22 06:41:27;;;;;;;9.05;5.22;;;4.30;99.90;;;;;;4917737;29;20040;-73
2022/11/22 06:43:56;;;;;;;7.43;4.35;;;4.40;99.90;;;;;;4917490;29;20043;-73
2022/11/22 06:46:23;;;;;;;3.33;3.03;;;4.30;99.90;;;;;;4951615;29;20119;-74
2022/11/22 06:48:49;;;;;;;5.82;3.28;;;4.30;99.90;;;;;;4933733;29;20032;-73
2022/11/22 06:51:21;;;;;;;19.75;6.10;;;4.40;99.90;;;;;;4950487;29;20139;-73
2022/11/22 06:53:49;;;;;;;6.78;3.50;;;4.40;99.90;;;;;;4947416;29;20036;-73
2022/11/22 06:56:21;;;;;;;15.80;7.10;;;4.30;99.90;;;;;;4950378;29;20034;-74
2022/11/22 06:58:48;;;;;;;3.67;2.50;;;4.30;99.90;;;;;;4950240;29;20046;-74
2022/11/22 07:01:26;;;;;;;11.85;4.30;;;4.40;99.90;;;;;;4950166;29;20037;-74
2022/11/22 07:03:59;;;;;;;6.30;4.28;;;4.40;99.90;;;;;;4949981;29;20036;-73
2022/11/22 07:06:27;;;;;;;6.65;3.80;;;4.40;99.90;;;;;;4949321;29;20083;-73
2022/11/22 07:08:54;;;;;;;7.32;2.10;;;4.50;99.90;;;;;;4948751;29;20024;-74
2022/11/22 07:11:25;;;;;;;5.68;2.63;;;4.50;99.90;;;;;;4916503;29;20056;-73
2022/11/22 07:13:51;;;;;;;20.17;3.92;;;4.50;99.90;;;;;;4949227;29;20047;-75
2022/11/22 07:16:19;;;;;;;14.60;5.75;;;4.60;99.90;;;;;;4949404;29;20122;-74
2022/11/22 07:18:46;;;;;;;7.18;3.45;;;4.70;99.90;;;;;;4949135;29;20038;-74
2022/11/22 07:21:14;;;;;;;7.82;4.65;;;4.80;99.90;;;;;;4948894;29;20036;-73
2022/11/22 07:23:42;;;;;;;3.53;2.92;;;4.90;99.90;;;;;;4932042;29;20024;-74
2022/11/22 07:26:09;;;;;;;8.57;3.53;;;5.20;99.90;;;;;;4947494;29;20024;-76
2022/11/22 07:28:35;;;;;;;7.13;4.03;;;5.20;99.90;;;;;;4949315;29;20474;-75
2022/11/22 07:31:03;;;;;;;4.25;2.95;;;5.20;99.90;;;;;;4949613;29;20029;-76
2022/11/22 07:33:29;;;;;;;6.93;2.67;;;5.20;99.90;;;;;;4929720;29;20035;-75
2022/11/22 07:35:55;;;;;;;7.30;2.63;;;5.20;99.90;;;;;;4949257;29;20039;-75
2022/11/22 07:38:21;;;;;;;3.00;2.08;;;5.30;99.90;;;;;;4948928;29;20019;-75
2022/11/22 07:40:48;;;;;;;10.23;3.00;;;5.30;99.90;;;;;;4948940;29;20051;-75
2022/11/22 07:43:14;;;;;;;7.97;4.47;;;5.30;99.90;;;;;;4949458;29;20032;-74
2022/11/22 07:45:39;;;;;;;3.13;2.80;;;5.40;99.90;;;;;;4949001;29;20035;-75
2022/11/22 07:48:06;;;;;;;11.25;5.32;;;5.50;99.90;;;;;;4958732;29;20090;-73
2022/11/22 07:50:32;;;;;;;13.48;5.95;;;5.50;99.90;;;;;;4950979;29;20062;-73
2022/11/22 07:52:59;;;;;;;16.38;6.07;;;5.50;99.90;;;;;;4947673;29;20055;-73
2022/11/22 07:55:26;;;;;;;12.13;6.32;;;5.50;99.90;;;;;;4968342;29;20093;-75
2022/11/22 07:57:58;;;;;;;9.52;5.03;;;5.60;99.90;;;;;;4951445;29;20038;-73
2022/11/22 08:00:24;;;;;;;10.02;4.80;;;5.70;99.90;;;;;;4968466;29;20035;-73
2022/11/22 08:02:50;;;;;;;9.38;3.58;;;5.70;99.90;;;;;;4968617;29;20039;-74
2022/11/22 08:05:16;;;;;;;10.70;3.28;;;5.70;99.90;;;;;;4968511;29;20034;-72
2022/11/22 08:07:50;;;;;;;8.70;4.03;;;5.70;99.90;;;;;;4951221;29;20036;-72
2022/11/22 08:10:17;;;;;;;5.85;3.28;;;5.80;99.90;;;;;;4951039;29;20023;-73
2022/11/22 08:12:43;;;;;;;7.07;4.65;;;5.80;99.90;;;;;;4961362;29;20039;-74
2022/11/22 08:15:10;;;;;;;8.70;3.05;;;5.80;99.90;;;;;;4968365;29;20100;-74
2022/11/22 08:17:37;;;;;;;6.18;3.00;;;5.80;99.90;;;;;;4919924;29;20506;-74
2022/11/22 08:20:04;;;;;;;3.88;3.05;;;5.90;99.90;;;;;;4947830;29;20039;-74
2022/11/22 08:22:29;;;;;;;3.40;2.42;;;6.00;99.90;;;;;;4948601;29;20039;-74
2022/11/22 08:24:55;;;;;;;4.15;2.47;;;6.00;99.90;;;;;;4948693;29;20039;-73
2022/11/22 08:27:21;;;;;;;7.53;3.08;;;6.10;99.90;;;;;;4962018;29;20086;-74
2022/11/22 08:29:47;;;;;;;10.63;3.83;;;6.20;99.90;;;;;;4959005;29;20027;-74
2022/11/22 08:32:13;;;;;;;4.35;2.40;;;6.10;99.90;;;;;;4948221;29;20039;-73
2022/11/22 08:34:38;;;;;;;10.20;2.75;;;6.10;99.90;;;;;;4948843;29;20169;-74
2022/11/22 08:37:05;;;;;;;8.15;4.30;;;6.20;99.90;;;;;;4948300;29;20039;-74
2022/11/22 08:39:31;;;;;;;7.60;3.17;;;6.30;99.90;;;;;;4947949;29;20054;-73
2022/11/22 08:41:57;;;;;;;3.35;2.10;;;6.30;99.90;;;;;;4948170;29;20063;-73
2022/11/22 08:44:22;;;;;;;2.85;2.30;;;6.40;99.90;;;;;;4947800;29;20118;-73
2022/11/22 08:46:48;;;;;;;8.25;2.40;;;6.40;99.90;;;;;;4948016;29;20433;-73
2022/11/22 08:49:14;;;;;;;7.85;2.80;;;6.40;99.90;;;;;;4948285;29;20036;-73
2022/11/22 08:51:44;;;;;;;2.05;1.85;;;6.40;99.90;;;;;;4948099;29;20556;-73
2022/11/22 08:54:14;;;;;;;3.50;2.17;;;6.40;99.90;;;;;;4947607;29;20048;-74
2022/11/22 08:56:40;;;;;;;;;;;6.50;99.90;;;;;;4947472;29;20028;-71
2022/11/22 08:59:06;;;;;;;2.38;2.15;;;6.50;99.90;;;;;;4948093;29;19922;-73
2022/11/22 09:01:32;;;;;;;9.10;2.45;;;6.50;99.90;;;;;;4947715;29;20039;-73
2022/11/22 09:03:58;;;;;;;2.90;2.03;;;6.50;99.90;;;;;;4930739;29;20035;-74
2022/11/22 09:06:24;;;;;;;5.15;4.00;;;6.50;99.90;;;;;;4948097;29;20059;-73
2022/11/22 09:08:50;;;;;;;7.28;2.67;;;6.50;99.90;;;;;;4948059;29;20114;-72
2022/11/22 09:11:18;;;;;;;3.92;2.05;;;6.60;99.90;;;;;;4947915;29;20036;-74
2022/11/22 09:13:45;;;;;;;5.22;2.33;;;6.60;99.90;;;;;;4947595;29;20064;-74
2022/11/22 09:16:13;;;;;;;6.28;3.67;;;6.60;99.90;;;;;;4948206;29;20092;-73
2022/11/22 09:18:40;;;;;;;2.95;2.70;;;6.70;99.90;;;;;;4947172;29;20027;-73
2022/11/22 09:21:09;;;;;;;2.53;2.33;;;6.80;99.90;;;;;;4931086;29;20059;-74
2022/11/22 09:23:36;;;;;;;3.35;2.00;;;6.90;99.90;;;;;;4947387;29;20062;-73
2022/11/22 09:26:10;;;;;;;4.97;1.73;;;6.90;99.90;;;;;;4930702;29;20032;-74
2022/11/22 09:28:36;;;;;;;3.17;1.83;;;6.90;99.90;;;;;;4946136;29;20095;-73
2022/11/22 09:31:05;;;;;;;4.00;3.03;;;6.80;99.90;;;;;;4947800;29;20055;-74
2022/11/22 09:33:32;;;;;;;5.82;2.17;;;6.80;99.90;;;;;;4947810;29;20063;-72
2022/11/22 09:36:06;;;;;;;5.40;1.58;;;6.80;99.90;;;;;;4946763;29;20027;-72
2022/11/22 09:38:33;;;;;;;2.20;2.00;;;6.90;99.90;;;;;;4947745;29;20580;-71
2022/11/22 09:41:18;;;;;;;3.70;1.63;;;6.90;99.90;;;;;;4930283;29;20095;-74
2022/11/22 09:43:56;;;;;;;7.22;1.67;;;6.90;99.90;;;;;;4930011;29;20023;-74
2022/11/22 09:46:35;;;;;;;1.65;1.55;;;6.90;99.90;;;;;;4939819;29;20028;-74
2022/11/22 09:49:30;;;;;;;7.55;1.88;;;6.90;99.90;;;;;;4945888;29;20038;-74
2022/11/22 09:52:08;;;;;;;3.28;2.72;;;6.90;99.90;;;;;;4913147;29;20098;-73
2022/11/22 09:54:48;;;;;;;2.25;1.80;;;6.90;99.90;;;;;;4947981;29;20114;-73
2022/11/22 09:57:30;;;;;;;2.13;2.00;;;6.90;99.90;;;;;;4930335;29;20095;-74
2022/11/22 10:00:03;;;;;;;3.47;2.65;;;7.10;99.90;;;;;;4943163;29;20390;-73
2022/11/22 10:02:44;;;;;;;2.60;1.88;;;7.20;99.90;;;;;;4940618;29;20046;-73
2022/11/22 10:05:19;;;;;;;1.42;1.23;;;7.20;99.90;;;;;;4947660;29;20032;-74
2022/11/22 10:08:13;;;;;;;9.35;2.60;;;7.30;99.90;;;;;;4950292;29;20031;-73
2022/11/22 10:10:41;;;;;;;10.80;2.47;;;7.30;99.90;;;;;;4918136;29;20113;-74
2022/11/22 10:13:21;;;;;;;2.38;1.60;;;7.50;99.90;;;;;;4948162;29;20096;-73
2022/11/22 10:16:15;;;;;;;12.45;1.40;;;7.50;99.90;;;;;;4951708;29;20031;-73
2022/11/22 10:19:00;;;;;;;2.03;1.65;;;7.60;99.90;;;;;;4932591;29;20036;-73
2022/11/22 10:21:26;;;;;;;2.28;1.33;;;7.60;99.90;;;;;;4930319;29;20066;-73
2022/11/22 10:23:52;;;;;;;2.67;1.23;;;7.60;99.90;;;;;;4933108;29;20469;-73
2022/11/22 10:26:28;;;;;;;4.55;1.70;;;7.60;99.90;;;;;;4933841;29;20035;-73
2022/11/22 10:29:18;;;;;;;4.22;2.28;;;7.60;99.90;;;;;;4932883;29;20132;-73
2022/11/22 10:31:56;;;;;;;3.60;1.08;;;7.60;99.90;;;;;;4941608;29;20083;-73
2022/11/22 10:35:06;;;;;;;3.22;0.93;;;7.50;99.90;;;;;;4937933;29;20055;-73
2022/11/22 10:37:52;;;;;;;1.10;0.73;;;7.50;99.90;;;;;;4946814;29;20059;-73
2022/11/22 10:40:27;;;;;;;1.38;0.82;;;7.60;99.90;;;;;;4933084;29;20382;-74
2022/11/22 10:44:07;;;;;;;3.00;0.75;;;7.70;99.90;;;;;;4950769;29;20044;-73
2022/11/22 10:46:53;;;;;;;1.15;0.70;;;8.00;99.90;;;;;;4825608;29;20031;-74
2022/11/22 10:49:23;;;;;;;1.85;1.17;;;8.20;99.90;;;;;;4892218;29;20044;-73
2022/11/22 10:52:21;;;;;;;1.20;1.10;;;8.40;99.90;;;;;;4912520;29;20053;-73
2022/11/22 10:55:05;;;;;;;2.30;1.20;;;8.40;99.90;;;;;;4933564;29;20542;-73
2022/11/22 10:57:59;;;;;;;1.25;0.75;;;8.60;99.90;;;;;;4950381;29;20036;-73
2022/11/22 11:00:30;;;;;;;1.85;0.98;;;8.50;99.90;;;;;;4949030;29;20528;-73
2022/11/22 11:03:28;;;;;;;2.22;0.73;;;8.40;99.90;;;;;;4951730;29;20075;-74
2022/11/22 11:06:26;;;;;;;0.60;0.43;;;8.30;99.90;;;;;;4946478;29;20486;-74
2022/11/22 11:09:21;;;;;;;3.95;1.15;;;8.20;99.90;;;;;;4916746;29;20091;-74
2022/11/22 11:11:49;;;;;;;0.80;0.80;;;8.20;99.90;;;;;;4932827;29;20079;-73
2022/11/22 11:14:35;;;;;;;3.55;1.98;;;8.10;99.90;;;;;;4932778;29;20051;-74
2022/11/22 11:17:04;;;;;;;4.13;1.75;;;8.10;99.90;;;;;;4932531;29;20027;-73
2022/11/22 11:19:36;;;;;;;0.70;0.70;;;8.10;99.90;;;;;;4949444;29;20042;-73
2022/11/22 11:22:39;;;;;;;1.10;1.10;;;8.10;99.90;;;;;;4932882;29;20450;-75
2022/11/22 11:25:33;;;;;;;1.35;1.25;;;8.10;99.90;;;;;;4949368;29;20028;-75
2022/11/22 11:28:15;;;;;;;2.72;0.82;;;8.10;99.90;;;;;;4950024;29;20031;-75
2022/11/22 11:30:44;;;;;;;0.93;0.85;;;8.00;99.90;;;;;;4950052;29;20031;-75
2022/11/22 11:33:22;;;;;;;1.83;1.30;;;7.90;99.90;;;;;;4950022;29;20043;-76
2022/11/22 11:35:49;;;;;;;2.63;1.40;;;8.00;99.90;;;;;;4950343;29;20036;-76
2022/11/22 11:38:33;;;;;;;1.90;1.67;;;7.80;99.90;;;;;;4969263;29;20046;-75
2022/11/22 11:41:35;;;;;;;2.03;1.50;;;7.90;99.90;;;;;;4969043;29;20043;-75
2022/11/22 11:44:04;;;;;;;10.98;3.10;;;8.00;99.90;;;;;;4909700;29;20076;-75
2022/11/22 11:46:50;;;;;;;3.08;2.75;;;8.00;99.90;;;;;;4958574;29;20035;-75
2022/11/22 11:49:19;;;;;;;1.83;1.73;;;8.10;99.90;;;;;;4963997;29;20103;-75
2022/11/22 11:51:47;;;;;;;4.60;3.50;;;8.10;99.90;;;;;;4949498;29;20036;-75
2022/11/22 11:54:17;;;;;;;5.13;2.72;;;8.10;99.90;;;;;;4949364;29;20055;-75
2022/11/22 11:56:50;;;;;;;6.85;4.97;;;8.10;99.90;;;;;;4960331;29;20400;-75
2022/11/22 11:59:29;;;;;;;3.03;2.58;;;8.10;99.90;;;;;;4968762;29;20033;-75
2022/11/22 12:02:11;;;;;;;2.72;2.33;;;8.00;99.90;;;;;;4968672;29;20111;-75
2022/11/22 12:04:56;;;;;;;4.50;3.83;;;8.10;99.90;;;;;;4968716;29;20065;-75
2022/11/22 12:07:25;;;;;;;1.50;1.38;;;8.00;99.90;;;;;;4965669;29;20024;-75
2022/11/22 12:09:53;;;;;;;1.50;0.70;;;8.10;99.90;;;;;;4951186;29;20051;-76
2022/11/22 12:13:06;;;;;;;1.65;1.25;;;8.10;99.90;;;;;;4968558;29;20028;-73
2022/11/22 12:15:50;;;;;;;1.58;0.98;;;8.20;99.90;;;;;;4916149;29;20104;-75
2022/11/22 12:18:24;;;;;;;3.15;1.90;;;8.20;99.90;;;;;;4964319;29;20027;-74
2022/11/22 12:21:32;;;;;;;3.30;1.30;;;8.40;99.90;;;;;;4926250;29;20039;-73
2022/11/22 12:24:08;;;;;;;8.23;4.22;;;8.40;99.90;;;;;;4887021;29;20031;-75
2022/11/22 12:26:34;;;;;;;2.78;2.55;;;8.50;99.90;;;;;;4927399;29;20547;-75
2022/11/22 12:29:00;;;;;;;0.90;0.90;;;8.50;99.90;;;;;;4931309;29;20035;-75
2022/11/22 12:31:30;;;;;;;2.25;2.05;;;8.60;99.90;;;;;;4931423;29;20034;-75
2022/11/22 12:34:06;;;;;;;1.33;1.02;;;8.60;99.90;;;;;;4968088;29;20082;-76
2022/11/22 12:36:50;;;;;;;1.10;1.10;;;8.50;99.90;;;;;;4968056;29;20051;-75
2022/11/22 12:39:25;;;;;;;0.82;0.82;;;8.50;99.90;;;;;;4967755;29;20047;-75
2022/11/22 12:42:03;;;;;;;2.72;1.10;;;8.50;99.90;;;;;;4967841;29;20035;-75
2022/11/22 12:44:45;;;;;;;2.47;0.90;;;8.50;99.90;;;;;;4959358;29;20434;-76
2022/11/22 12:47:19;;;;;;;0.98;0.50;;;8.40;99.90;;;;;;4946344;29;20027;-76
2022/11/22 12:49:52;;;;;;;0.47;0.47;;;8.40;99.90;;;;;;4958893;29;20129;-76
2022/11/22 12:52:42;;;;;;;0.65;0.50;;;8.40;99.90;;;;;;4936469;29;20062;-75
2022/11/22 12:55:22;;;;;;;0.57;0.57;;;8.40;99.90;;;;;;4915802;29;20031;-75
2022/11/22 12:57:53;;;;;;;;;;;8.40;99.90;;;;;;4916255;29;20409;-73
2022/11/22 13:00:23;;;;;;;0.77;0.60;;;8.30;99.90;;;;;;4948537;29;19922;-75
2022/11/22 13:03:07;;;;;;;1.55;0.50;;;8.30;99.90;;;;;;4930904;29;20055;-74
2022/11/22 13:05:42;;;;;;;1.67;0.60;;;8.30;99.90;;;;;;4931082;29;20039;-75
2022/11/22 13:08:08;;;;;;;0.70;0.70;;;8.30;99.90;;;;;;4915731;29;20107;-75
2022/11/22 13:10:38;;;;;;;1.02;0.50;;;8.30;99.90;;;;;;4948131;29;20060;-76
2022/11/22 13:13:18;;;;;;;1.13;1.13;;;8.40;99.90;;;;;;4931259;29;20028;-74
2022/11/22 13:15:45;;;;;;;5.78;5.20;;;8.40;99.90;;;;;;4947974;29;20381;-75
2022/11/22 13:18:15;;;;;;;0.65;0.65;;;8.50;99.90;;;;;;4947991;29;20035;-75
2022/11/22 13:20:54;;;;;;;1.27;1.17;;;8.50;99.90;;;;;;4947458;29;20031;-73
2022/11/22 13:23:38;;;;;;;1.27;1.27;;;8.60;99.90;;;;;;4936007;29;20068;-75
2022/11/22 13:26:11;;;;;;;3.22;2.95;;;8.60;99.90;;;;;;4930376;29;20083;-75
2022/11/22 13:28:38;;;;;;;0.63;0.63;;;8.60;99.90;;;;;;4948244;29;20060;-76